createdAt,value
2023-07-25T00:02:05.495Z,21.88
2023-07-25T00:04:32.868Z,21.99
2023-07-25T00:07:00.215Z,21.94
2023-07-25T00:09:27.692Z,21.80
2023-07-25T00:11:55.079Z,21.92
2023-07-25T00:14:22.426Z,21.87
2023-07-25T00:16:50.426Z,21.90
2023-07-25T00:19:17.998Z,21.95
2023-07-25T00:21:45.427Z,21.99
2023-07-25T00:24:12.831Z,21.95
2023-07-25T00:26:40.246Z,21.98
2023-07-25T00:29:07.634Z,21.97
2023-07-25T00:31:35.308Z,21.96
2023-07-25T00:34:05.018Z,21.99
2023-07-25T00:36:32.571Z,21.90
2023-07-25T00:39:00.055Z,21.81
2023-07-25T00:41:27.485Z,21.83
2023-07-25T00:43:54.851Z,21.86
2023-07-25T00:46:22.337Z,21.89
2023-07-25T00:48:49.920Z,21.96
2023-07-25T00:51:17.378Z,22.06
2023-07-25T00:53:45.098Z,22.16
2023-07-25T00:56:14.049Z,22.14
2023-07-25T00:58:41.451Z,22.20
2023-07-25T01:01:09.065Z,22.10
2023-07-25T01:03:39.199Z,22.15
2023-07-25T01:06:12.313Z,22.16
2023-07-25T01:08:56.226Z,21.97
2023-07-25T01:11:24.675Z,22.09
2023-07-25T01:13:52.389Z,22.18
2023-07-25T01:16:24.874Z,22.16
2023-07-25T01:18:53.467Z,22.27
2023-07-25T01:21:23.070Z,22.25
2023-07-25T01:23:50.993Z,22.18
2023-07-25T01:26:19.211Z,22.15
2023-07-25T01:28:46.684Z,22.23
2023-07-25T01:31:14.047Z,22.25
2023-07-25T01:33:41.534Z,22.31
2023-07-25T01:36:08.965Z,22.32
2023-07-25T01:38:36.335Z,22.34
2023-07-25T01:41:03.798Z,22.30
2023-07-25T01:43:31.220Z,22.23
2023-07-25T01:45:59.013Z,22.23
2023-07-25T01:48:26.507Z,22.10
2023-07-25T01:50:53.885Z,22.12
2023-07-25T01:53:21.491Z,22.14
2023-07-25T01:55:49.145Z,22.18
2023-07-25T01:58:16.542Z,22.18
2023-07-25T02:00:43.947Z,22.15
2023-07-25T02:03:17.085Z,22.20
2023-07-25T02:05:44.715Z,22.23
2023-07-25T02:08:13.955Z,22.22
2023-07-25T02:10:41.388Z,22.21
2023-07-25T02:13:08.879Z,22.26
2023-07-25T02:15:37.701Z,22.24
2023-07-25T02:18:05.230Z,22.15
2023-07-25T02:20:33.603Z,22.14
2023-07-25T02:23:01.081Z,22.19
2023-07-25T02:25:30.003Z,22.34
2023-07-25T02:27:57.457Z,22.17
2023-07-25T02:30:24.958Z,22.18
2023-07-25T02:32:52.358Z,22.28
2023-07-25T02:35:19.808Z,22.28
2023-07-25T02:37:47.910Z,22.24
2023-07-25T02:40:15.321Z,22.05
2023-07-25T02:42:42.967Z,22.01
2023-07-25T02:45:10.883Z,22.03
2023-07-25T02:47:38.596Z,22.05
2023-07-25T02:50:07.639Z,22.08
2023-07-25T02:55:02.566Z,22.12
2023-07-25T02:57:30.124Z,22.22
2023-07-25T02:59:57.545Z,22.13
2023-07-25T03:02:25.114Z,22.07
2023-07-25T03:04:52.781Z,22.10
2023-07-25T03:07:20.292Z,22.11
2023-07-25T03:09:47.800Z,22.15
2023-07-25T03:12:15.306Z,22.08
2023-07-25T03:14:42.816Z,22.14
2023-07-25T03:17:10.435Z,22.04
2023-07-25T03:19:37.946Z,21.90
2023-07-25T03:22:05.838Z,21.89
2023-07-25T03:24:33.438Z,21.97
2023-07-25T03:27:00.893Z,21.83
2023-07-25T03:29:28.474Z,21.69
2023-07-25T03:31:56.054Z,21.78
2023-07-25T03:34:23.613Z,21.82
2023-07-25T03:36:51.097Z,21.60
2023-07-25T03:39:18.729Z,21.35
2023-07-25T03:41:46.326Z,20.86
2023-07-25T03:44:21.388Z,20.30
2023-07-25T03:46:48.860Z,20.32
2023-07-25T03:49:16.677Z,20.18
2023-07-25T03:51:44.153Z,20.27
2023-07-25T03:54:11.605Z,20.36
2023-07-25T03:56:39.085Z,20.47
2023-07-25T03:59:06.522Z,20.52
2023-07-25T04:01:34.188Z,20.52
2023-07-25T04:04:01.994Z,20.55
2023-07-25T04:06:29.529Z,20.57
2023-07-25T04:08:56.996Z,20.65
2023-07-25T04:11:24.579Z,20.69
2023-07-25T04:13:51.972Z,20.70
2023-07-25T04:16:19.568Z,20.69
2023-07-25T04:18:47.137Z,20.57
2023-07-25T04:21:14.615Z,20.68
2023-07-25T04:23:42.502Z,20.74
2023-07-25T04:26:10.085Z,20.75
2023-07-25T04:28:37.513Z,20.65
2023-07-25T04:31:04.965Z,20.67
2023-07-25T04:33:32.505Z,20.79
2023-07-25T04:35:59.931Z,20.79
2023-07-25T04:38:27.337Z,20.72
2023-07-25T04:40:54.824Z,20.86
2023-07-25T04:43:22.309Z,20.88
2023-07-25T04:45:54.656Z,20.93
2023-07-25T04:48:23.022Z,20.97
2023-07-25T04:50:50.952Z,21.11
2023-07-25T04:53:18.567Z,21.03
2023-07-25T04:55:46.049Z,21.00
2023-07-25T04:58:13.534Z,20.88
2023-07-25T05:00:41.313Z,20.85
2023-07-25T05:03:10.613Z,21.02
2023-07-25T05:05:38.380Z,21.14
2023-07-25T05:08:05.891Z,20.96
2023-07-25T05:10:33.435Z,20.92
2023-07-25T05:13:00.911Z,20.92
2023-07-25T05:15:28.409Z,20.93
2023-07-25T05:17:55.932Z,21.06
2023-07-25T05:20:23.460Z,21.09
2023-07-25T05:22:51.130Z,21.13
2023-07-25T05:25:18.618Z,21.22
2023-07-25T05:27:46.199Z,21.29
2023-07-25T05:30:14.106Z,21.48
2023-07-25T05:32:42.008Z,21.35
2023-07-25T05:35:09.606Z,21.45
2023-07-25T05:37:38.723Z,21.55
2023-07-25T05:40:07.148Z,21.61
2023-07-25T05:42:35.166Z,21.56
2023-07-25T05:45:02.892Z,21.53
2023-07-25T05:47:31.710Z,21.52
2023-07-25T05:49:59.345Z,21.55
2023-07-25T05:52:26.983Z,21.44
2023-07-25T05:54:55.000Z,21.50
2023-07-25T05:57:22.618Z,21.58
2023-07-25T05:59:50.141Z,21.52
2023-07-25T06:02:17.788Z,21.58
2023-07-25T06:04:47.446Z,21.54
2023-07-25T06:07:15.989Z,21.42
2023-07-25T06:09:43.434Z,21.47
2023-07-25T06:12:11.279Z,21.54
2023-07-25T06:14:38.722Z,21.45
2023-07-25T06:17:06.639Z,21.57
2023-07-25T06:19:34.079Z,21.42
2023-07-25T06:22:01.599Z,21.45
2023-07-25T06:24:29.235Z,21.41
2023-07-25T06:26:56.827Z,21.50
2023-07-25T06:29:24.503Z,21.56
2023-07-25T06:31:52.505Z,21.56
2023-07-25T06:34:20.189Z,21.30
2023-07-25T06:36:47.563Z,21.31
2023-07-25T06:39:15.248Z,21.48
2023-07-25T06:41:43.181Z,21.33
2023-07-25T06:44:16.529Z,21.52
2023-07-25T06:46:44.131Z,21.55
2023-07-25T06:49:11.875Z,21.56
2023-07-25T06:51:39.337Z,21.40
2023-07-25T06:54:06.830Z,21.58
2023-07-25T06:56:34.235Z,21.61
2023-07-25T06:59:02.529Z,21.82
2023-07-25T07:01:30.571Z,21.98
2023-07-25T07:03:58.398Z,22.15
2023-07-25T07:06:26.957Z,22.40
2023-07-25T07:08:54.474Z,22.60
2023-07-25T07:11:22.052Z,22.61
2023-07-25T07:13:49.587Z,22.70
2023-07-25T07:16:17.123Z,22.70
2023-07-25T07:18:44.853Z,22.46
2023-07-25T07:21:12.481Z,22.21
2023-07-25T07:23:39.895Z,22.22
2023-07-25T07:26:07.615Z,22.28
2023-07-25T07:28:35.091Z,22.28
2023-07-25T07:31:02.631Z,22.25
2023-07-25T07:33:31.118Z,22.15
2023-07-25T07:35:58.600Z,22.14
2023-07-25T07:38:26.031Z,22.10
2023-07-25T07:40:55.196Z,22.21
2023-07-25T07:43:22.934Z,21.90
2023-07-25T07:45:50.625Z,21.85
2023-07-25T07:48:18.135Z,21.94
2023-07-25T07:50:45.749Z,21.96
2023-07-25T07:53:13.256Z,21.95
2023-07-25T07:55:40.739Z,21.78
2023-07-25T07:58:08.274Z,21.71
2023-07-25T08:00:35.801Z,21.69
2023-07-25T08:03:03.696Z,21.75
2023-07-25T08:05:32.243Z,21.63
2023-07-25T08:07:59.667Z,21.48
2023-07-25T08:10:27.257Z,21.63
2023-07-25T08:12:54.797Z,21.74
2023-07-25T08:15:22.300Z,21.73
2023-07-25T08:17:50.030Z,21.76
2023-07-25T08:20:17.676Z,21.83
2023-07-25T08:22:46.920Z,21.94
2023-07-25T08:25:14.501Z,21.72
2023-07-25T08:27:41.984Z,21.48
2023-07-25T08:30:09.782Z,21.31
2023-07-25T08:32:37.294Z,21.27
2023-07-25T08:35:05.200Z,20.97
2023-07-25T08:37:32.784Z,21.02
2023-07-25T08:40:00.393Z,21.02
2023-07-25T08:42:32.943Z,21.03
2023-07-25T08:45:02.036Z,21.07
2023-07-25T08:47:33.733Z,20.96
2023-07-25T08:50:02.213Z,20.93
2023-07-25T08:52:33.074Z,20.88
2023-07-25T08:55:00.807Z,20.99
2023-07-25T08:57:30.373Z,21.11
2023-07-25T08:59:58.744Z,21.29
2023-07-25T09:02:27.066Z,21.33
2023-07-25T09:04:55.333Z,21.42
2023-07-25T09:07:22.847Z,21.57
2023-07-25T09:09:50.411Z,21.43
2023-07-25T09:12:19.259Z,21.58
2023-07-25T09:14:46.837Z,21.65
2023-07-25T09:17:14.479Z,21.66
2023-07-25T09:19:42.733Z,21.68
2023-07-25T09:22:30.250Z,21.66
2023-07-25T09:24:59.138Z,21.65
2023-07-25T09:27:27.306Z,21.70
2023-07-25T09:29:55.198Z,21.92
2023-07-25T09:32:28.824Z,22.18
2023-07-25T09:35:01.912Z,23.11
2023-07-25T09:37:30.193Z,23.10
2023-07-25T09:39:57.896Z,23.34
2023-07-25T09:42:27.287Z,23.54
2023-07-25T09:44:55.518Z,24.35
2023-07-25T09:47:27.994Z,25.66
2023-07-25T09:49:57.724Z,25.57
2023-07-25T09:52:26.747Z,24.95
2023-07-25T09:54:54.442Z,24.58
2023-07-25T09:57:22.151Z,24.22
2023-07-25T09:59:50.852Z,23.96
2023-07-25T10:02:19.239Z,24.22
2023-07-25T10:04:49.093Z,23.97
2023-07-25T10:07:16.874Z,23.87
2023-07-25T10:09:47.458Z,24.09
2023-07-25T10:12:15.079Z,23.92
2023-07-25T10:14:42.637Z,23.94
2023-07-25T10:17:11.215Z,24.05
2023-07-25T10:19:50.430Z,24.32
2023-07-25T10:22:32.544Z,24.51
2023-07-25T10:25:00.289Z,24.43
2023-07-25T10:27:28.449Z,24.41
2023-07-25T10:30:01.844Z,24.30
2023-07-25T10:32:47.457Z,24.40
2023-07-25T10:35:15.004Z,24.69
2023-07-25T10:37:45.976Z,24.82
2023-07-25T10:40:24.632Z,24.65
2023-07-25T10:43:05.773Z,24.66
2023-07-25T10:45:35.019Z,24.53
2023-07-25T10:48:02.662Z,24.62
2023-07-25T10:50:54.370Z,24.75
2023-07-25T10:53:23.903Z,24.76
2023-07-25T10:56:10.251Z,24.90
2023-07-25T10:58:58.178Z,25.07
2023-07-25T11:01:51.943Z,25.22
2023-07-25T11:04:28.359Z,25.30
2023-07-25T11:06:56.882Z,25.44
2023-07-25T11:09:25.858Z,25.74
2023-07-25T11:11:55.082Z,25.74
2023-07-25T11:14:23.390Z,25.55
2023-07-25T11:16:52.626Z,25.63
2023-07-25T11:19:26.352Z,25.62
2023-07-25T11:21:54.126Z,25.86
2023-07-25T11:24:22.780Z,25.84
2023-07-25T11:26:50.586Z,25.90
2023-07-25T11:29:18.848Z,25.99
2023-07-25T11:31:50.864Z,25.99
2023-07-25T11:34:20.433Z,26.04
2023-07-25T11:36:48.991Z,25.99
2023-07-25T11:39:17.205Z,26.04
2023-07-25T11:41:46.059Z,26.06
2023-07-25T11:44:16.631Z,26.15
2023-07-25T11:46:51.658Z,26.22
2023-07-25T11:49:40.345Z,26.19
2023-07-25T11:52:10.646Z,26.29
2023-07-25T11:54:39.052Z,26.37
2023-07-25T11:57:09.374Z,26.44
2023-07-25T11:59:41.895Z,26.56
2023-07-25T12:02:12.783Z,26.39
2023-07-25T12:04:45.763Z,26.45
2023-07-25T12:07:15.257Z,26.51
2023-07-25T12:09:54.783Z,26.51
2023-07-25T12:12:22.593Z,26.44
2023-07-25T12:15:04.090Z,26.55
2023-07-25T12:17:45.124Z,26.39
2023-07-25T12:20:24.096Z,26.16
2023-07-25T12:23:06.960Z,26.39
2023-07-25T12:25:37.489Z,26.48
2023-07-25T12:28:05.130Z,26.57
2023-07-25T12:30:32.769Z,26.60
2023-07-25T12:33:00.459Z,26.57
2023-07-25T12:35:28.242Z,26.53
2023-07-25T12:37:55.887Z,26.49
2023-07-25T12:40:23.864Z,26.57
2023-07-25T12:42:51.475Z,26.63
2023-07-25T12:45:19.482Z,26.74
2023-07-25T12:47:47.185Z,26.71
2023-07-25T12:50:14.948Z,26.84
2023-07-25T12:52:42.494Z,26.84
2023-07-25T12:55:10.071Z,26.74
2023-07-25T12:57:38.678Z,26.93
2023-07-25T13:00:08.271Z,27.00
2023-07-25T13:02:36.442Z,26.97
2023-07-25T13:05:04.414Z,27.03
2023-07-25T13:07:32.335Z,27.14
2023-07-25T13:10:00.214Z,27.17
2023-07-25T13:12:28.234Z,27.02
2023-07-25T13:14:56.149Z,27.15
2023-07-25T13:17:23.813Z,27.27
2023-07-25T13:19:51.448Z,27.44
2023-07-25T13:22:19.050Z,27.49
2023-07-25T13:24:46.839Z,27.41
2023-07-25T13:27:14.395Z,27.50
2023-07-25T13:29:41.926Z,27.44
2023-07-25T13:32:09.711Z,27.55
2023-07-25T13:34:37.356Z,27.57
2023-07-25T13:37:05.347Z,27.45
2023-07-25T13:39:32.988Z,27.46
2023-07-25T13:42:00.520Z,27.52
2023-07-25T13:44:31.600Z,27.52
2023-07-25T13:47:01.468Z,27.56
2023-07-25T13:49:29.213Z,27.60
2023-07-25T13:51:57.513Z,27.62
2023-07-25T13:54:25.690Z,27.52
2023-07-25T13:57:04.247Z,27.48
2023-07-25T13:59:33.388Z,27.35
2023-07-25T14:02:04.649Z,27.46
2023-07-25T14:04:34.096Z,27.39
2023-07-25T14:07:01.848Z,27.42
2023-07-25T14:09:30.493Z,27.47
2023-07-25T14:11:58.774Z,27.61
2023-07-25T14:14:27.702Z,27.57
2023-07-25T14:16:57.079Z,27.77
2023-07-25T14:19:25.778Z,27.78
2023-07-25T14:21:53.777Z,27.83
2023-07-25T14:24:21.530Z,27.75
2023-07-25T14:26:49.374Z,27.81
2023-07-25T14:29:16.983Z,27.66
2023-07-25T14:31:45.065Z,27.71
2023-07-25T14:34:16.112Z,27.74
2023-07-25T14:36:43.757Z,27.67
2023-07-25T14:39:11.326Z,27.59
2023-07-25T14:41:38.967Z,27.88
2023-07-25T14:44:07.241Z,27.82
2023-07-25T14:46:35.219Z,27.71
2023-07-25T14:49:02.976Z,27.75
2023-07-25T14:51:30.679Z,27.74
2023-07-25T14:53:59.102Z,27.73
2023-07-25T14:56:26.636Z,27.70
2023-07-25T14:58:54.286Z,27.70
2023-07-25T15:01:21.943Z,27.73
2023-07-25T15:03:50.053Z,27.67
2023-07-25T15:06:17.584Z,27.56
2023-07-25T15:08:45.372Z,27.54
2023-07-25T15:11:13.049Z,27.55
2023-07-25T15:13:40.730Z,27.63
2023-07-25T15:16:10.001Z,27.62
2023-07-25T15:18:38.072Z,27.55
2023-07-25T15:21:05.627Z,27.57
2023-07-25T15:23:33.297Z,27.60
2023-07-25T15:26:00.905Z,27.53
2023-07-25T15:28:29.353Z,27.45
2023-07-25T15:30:57.967Z,27.35
2023-07-25T15:33:26.021Z,27.37
2023-07-25T15:35:53.583Z,27.29
2023-07-25T15:38:21.375Z,27.27
2023-07-25T15:40:49.306Z,27.22
2023-07-25T15:43:17.082Z,27.29
2023-07-25T15:45:44.862Z,27.28
2023-07-25T15:48:12.611Z,27.18
2023-07-25T15:50:41.913Z,27.05
2023-07-25T15:53:09.663Z,27.16
2023-07-25T15:55:37.273Z,27.21
2023-07-25T15:58:04.912Z,27.09
2023-07-25T16:00:33.495Z,27.14
2023-07-25T16:03:01.444Z,27.09
2023-07-25T16:05:29.792Z,27.08
2023-07-25T16:07:57.399Z,27.07
2023-07-25T16:10:25.448Z,27.09
2023-07-25T16:12:53.512Z,27.09
2023-07-25T16:15:21.407Z,27.02
2023-07-25T16:17:52.045Z,27.02
2023-07-25T16:20:20.161Z,26.90
2023-07-25T16:22:47.837Z,26.92
2023-07-25T16:25:16.572Z,26.88
2023-07-25T16:27:44.236Z,26.97
2023-07-25T16:30:12.832Z,26.88
2023-07-25T16:32:41.532Z,26.91
2023-07-25T16:35:12.730Z,26.91
2023-07-25T16:37:42.475Z,26.92
2023-07-25T16:40:10.878Z,26.85
2023-07-25T16:42:38.765Z,26.79
2023-07-25T16:45:07.173Z,26.73
2023-07-25T16:47:34.966Z,26.66
2023-07-25T16:50:02.671Z,26.59
2023-07-25T16:52:35.381Z,26.58
2023-07-25T16:55:04.207Z,26.52
2023-07-25T16:57:32.237Z,26.45
2023-07-25T16:59:59.825Z,26.49
2023-07-25T17:02:27.554Z,26.46
2023-07-25T17:04:56.093Z,26.46
2023-07-25T17:07:23.566Z,26.41
2023-07-25T17:09:50.973Z,26.36
2023-07-25T17:12:18.537Z,26.28
2023-07-25T17:14:46.113Z,26.27
2023-07-25T17:17:13.931Z,26.28
2023-07-25T17:19:41.474Z,26.25
2023-07-25T17:22:09.454Z,26.27
2023-07-25T17:24:36.968Z,26.25
2023-07-25T17:27:04.872Z,26.34
2023-07-25T17:29:32.375Z,26.43
2023-07-25T17:32:01.224Z,26.52
2023-07-25T17:34:28.924Z,26.60
2023-07-25T17:36:56.325Z,26.61
2023-07-25T17:39:23.788Z,26.61
2023-07-25T17:41:51.632Z,26.65
2023-07-25T17:44:19.221Z,26.66
2023-07-25T17:46:46.888Z,26.70
2023-07-25T17:49:14.538Z,26.69
2023-07-25T17:51:42.078Z,26.67
2023-07-25T17:54:09.650Z,26.65
2023-07-25T17:56:37.223Z,26.53
2023-07-25T17:59:04.761Z,26.46
2023-07-25T18:01:32.676Z,26.46
2023-07-25T18:04:00.394Z,26.32
2023-07-25T18:06:28.548Z,26.21
2023-07-25T18:08:56.018Z,26.21
2023-07-25T18:11:23.686Z,26.17
2023-07-25T18:13:51.524Z,26.10
2023-07-25T18:16:19.060Z,26.25
2023-07-25T18:18:46.700Z,26.20
2023-07-25T18:21:14.319Z,26.16
2023-07-25T18:23:41.892Z,26.14
2023-07-25T18:26:09.695Z,26.11
2023-07-25T18:28:37.318Z,26.04
2023-07-25T18:31:05.003Z,25.98
2023-07-25T18:33:32.626Z,25.91
2023-07-25T18:36:00.197Z,25.90
2023-07-25T18:38:27.707Z,25.82
2023-07-25T18:40:55.261Z,25.78
2023-07-25T18:43:25.806Z,25.78
2023-07-25T18:45:53.610Z,25.76
2023-07-25T18:48:21.777Z,25.69
2023-07-25T18:50:49.361Z,25.64
2023-07-25T18:53:16.966Z,25.62
2023-07-25T18:55:44.560Z,25.59
2023-07-25T18:58:12.155Z,25.60
2023-07-25T19:00:39.689Z,25.55
2023-07-25T19:03:07.273Z,25.49
2023-07-25T19:05:34.956Z,25.45
2023-07-25T19:08:02.522Z,25.38
2023-07-25T19:10:30.217Z,25.35
2023-07-25T19:12:57.757Z,25.34
2023-07-25T19:15:25.311Z,25.33
2023-07-25T19:17:52.887Z,25.35
2023-07-25T19:20:20.467Z,25.34
2023-07-25T19:22:47.997Z,25.29
2023-07-25T19:25:15.570Z,25.25
2023-07-25T19:27:45.435Z,25.24
2023-07-25T19:30:13.095Z,25.17
2023-07-25T19:32:40.739Z,25.10
2023-07-25T19:35:10.276Z,25.13
2023-07-25T19:37:38.077Z,25.16
2023-07-25T19:40:07.657Z,25.05
2023-07-25T19:42:36.265Z,25.07
2023-07-25T19:45:04.782Z,25.10
2023-07-25T19:47:32.492Z,25.01
2023-07-25T19:50:00.082Z,25.01
2023-07-25T19:52:27.588Z,24.95
2023-07-25T19:54:55.236Z,24.99
2023-07-25T19:57:22.864Z,25.04
2023-07-25T19:59:50.440Z,25.03
2023-07-25T20:02:17.905Z,24.96
2023-07-25T20:04:45.449Z,24.97
2023-07-25T20:07:13.067Z,24.89
2023-07-25T20:09:40.900Z,24.87
2023-07-25T20:12:09.526Z,24.81
2023-07-25T20:14:37.028Z,24.82
2023-07-25T20:17:04.821Z,24.80
2023-07-25T20:19:32.511Z,24.84
2023-07-25T20:22:00.027Z,24.88
2023-07-25T20:24:27.678Z,24.81
2023-07-25T20:26:55.136Z,24.73
2023-07-25T20:29:22.723Z,24.69
2023-07-25T20:31:50.298Z,24.61
2023-07-25T20:34:17.882Z,24.64
2023-07-25T20:36:45.465Z,24.64
2023-07-25T20:39:13.090Z,24.46
2023-07-25T20:41:40.707Z,24.45
2023-07-25T20:44:08.482Z,24.46
2023-07-25T20:46:36.369Z,24.49
2023-07-25T20:49:04.385Z,24.44
2023-07-25T20:51:32.124Z,24.46
2023-07-25T20:53:59.645Z,24.47
2023-07-25T20:56:29.837Z,24.34
2023-07-25T20:58:57.631Z,24.23
2023-07-25T21:01:25.243Z,24.17
2023-07-25T21:03:52.817Z,24.28
2023-07-25T21:06:20.607Z,24.33
2023-07-25T21:08:48.207Z,24.40
2023-07-25T21:11:19.749Z,24.50
2023-07-25T21:13:48.772Z,24.47
2023-07-25T21:16:16.342Z,24.36
2023-07-25T21:18:44.298Z,24.34
2023-07-25T21:21:11.992Z,24.40
2023-07-25T21:23:39.643Z,24.40
2023-07-25T21:26:07.116Z,24.40
2023-07-25T21:28:34.565Z,24.40
2023-07-25T21:31:02.433Z,24.37
2023-07-25T21:33:29.921Z,24.32
2023-07-25T21:36:16.307Z,24.30
2023-07-25T21:38:44.151Z,24.25
2023-07-25T21:41:15.899Z,24.20
2023-07-25T21:43:43.628Z,24.16
2023-07-25T21:46:11.266Z,24.10
2023-07-25T21:48:39.091Z,24.02
2023-07-25T21:51:07.617Z,23.96
2023-07-25T21:53:35.235Z,24.00
2023-07-25T21:56:02.778Z,23.91
2023-07-25T21:58:30.251Z,23.91
2023-07-25T22:00:59.197Z,23.94
2023-07-25T22:03:29.497Z,23.86
2023-07-25T22:05:58.295Z,23.93
2023-07-25T22:08:25.864Z,23.98
2023-07-25T22:10:54.614Z,23.90
2023-07-25T22:13:22.826Z,23.83
2023-07-25T22:15:50.554Z,23.65
2023-07-25T22:18:18.205Z,23.75
2023-07-25T22:20:51.848Z,23.67
2023-07-25T22:23:21.651Z,23.66
2023-07-25T22:25:49.522Z,23.74
2023-07-25T22:28:17.116Z,23.72
2023-07-25T22:30:44.730Z,23.66
2023-07-25T22:33:12.257Z,23.61
2023-07-25T22:35:39.752Z,23.63
2023-07-25T22:38:07.360Z,23.76
2023-07-25T22:40:34.911Z,23.74
2023-07-25T22:43:02.451Z,23.64
2023-07-25T22:45:30.214Z,23.67
2023-07-25T22:47:57.745Z,23.70
2023-07-25T22:50:25.283Z,23.65
2023-07-25T22:52:52.822Z,23.64
2023-07-25T22:55:22.514Z,23.62
2023-07-25T22:57:50.257Z,23.53
2023-07-25T23:00:17.998Z,23.43
2023-07-25T23:02:45.888Z,23.40
2023-07-25T23:05:13.552Z,23.45
2023-07-25T23:07:41.160Z,23.50
2023-07-25T23:10:09.063Z,23.57
2023-07-25T23:12:36.693Z,23.54
2023-07-25T23:15:05.144Z,23.70
2023-07-25T23:17:32.729Z,23.69
2023-07-25T23:20:00.267Z,23.67
2023-07-25T23:22:27.827Z,23.49
2023-07-25T23:24:56.962Z,23.46
2023-07-25T23:27:24.583Z,23.49
2023-07-25T23:29:52.116Z,23.51
2023-07-25T23:32:19.697Z,23.56
2023-07-25T23:34:49.661Z,23.35
2023-07-25T23:37:18.242Z,23.28
2023-07-25T23:39:45.895Z,23.36
2023-07-25T23:42:15.154Z,23.31
2023-07-25T23:44:42.764Z,23.34
2023-07-25T23:47:12.910Z,23.22
2023-07-25T23:49:40.819Z,23.20
2023-07-25T23:52:08.521Z,23.14
2023-07-25T23:54:36.231Z,23.14
2023-07-25T23:57:05.274Z,23.11
2023-07-25T23:59:33.032Z,22.89
